Time;durP1;ratioP1;P1;durP2;ratioP2;P2;SDS_P1;SDS_P2;PMS_P1;PMS_P2;Temp;Humidity;BMP_temperature;BMP_pressure;BME280_temperature;BME280_humidity;BME280_pressure;Samples;Min_cycle;Max_cycle;Signal;HPM_P1;HPM_P2
2021/06/10 00:01:32;;;;;;;10.65;5.90;;;;;;;15.86;67.66;101601.56;5070708;28;20029;-72
2021/06/10 00:03:57;;;;;;;8.52;5.85;;;;;;;15.83;67.98;101591.16;5062230;28;20027;-72
2021/06/10 00:06:23;;;;;;;6.65;5.85;;;;;;;15.82;68.24;101600.50;5071049;28;20378;-72
2021/06/10 00:08:49;;;;;;;9.25;5.88;;;;;;;15.80;68.73;101590.91;5070447;28;20040;-72
2021/06/10 00:11:14;;;;;;;8.30;5.65;;;;;;;15.77;68.75;101586.81;5068691;28;20025;-73
2021/06/10 00:13:39;;;;;;;9.23;6.25;;;;;;;15.75;68.72;101589.03;5050995;28;20060;-73
2021/06/10 00:16:05;;;;;;;6.85;5.25;;;;;;;15.74;68.53;101590.97;5069810;28;20474;-73
2021/06/10 00:18:30;;;;;;;10.32;6.72;;;;;;;15.73;68.62;101589.31;5070374;28;20032;-72
2021/06/10 00:20:56;;;;;;;11.65;6.93;;;;;;;15.72;68.56;101589.63;5064035;28;20021;-73
2021/06/10 00:23:21;;;;;;;7.65;5.70;;;;;;;15.70;68.73;101587.13;5074465;28;20055;-73
2021/06/10 00:25:46;;;;;;;9.27;6.05;;;;;;;15.69;69.28;101581.94;5071107;28;20377;-72
2021/06/10 00:28:12;;;;;;;11.15;6.22;;;;;;;15.65;68.86;101589.09;5069947;28;20032;-73
2021/06/10 00:30:37;;;;;;;12.95;6.60;;;;;;;15.63;68.79;101581.13;5070172;28;20047;-72
2021/06/10 00:33:03;;;;;;;9.90;7.30;;;;;;;15.64;69.25;101591.03;5070703;28;20024;-72
2021/06/10 00:35:33;;;;;;;10.90;6.70;;;;;;;15.62;69.39;101581.41;5068774;28;20117;-73
2021/06/10 00:37:59;;;;;;;12.35;7.47;;;;;;;15.57;69.41;101586.97;5069145;28;20025;-72
2021/06/10 00:40:29;;;;;;;9.70;6.97;;;;;;;15.53;69.46;101570.22;5070353;28;20056;-73
2021/06/10 00:42:54;;;;;;;9.77;7.28;;;;;;;15.50;69.47;101576.31;5071628;28;20021;-72
2021/06/10 00:45:21;;;;;;;9.65;7.53;;;;;;;15.48;69.84;101578.50;5052893;28;20036;-72
2021/06/10 00:47:47;;;;;;;9.98;7.88;;;;;;;15.45;69.64;101571.66;5069488;28;20025;-72
2021/06/10 00:50:13;;;;;;;11.68;6.70;;;;;;;15.42;69.70;101569.50;5069967;28;20034;-72
2021/06/10 00:52:39;;;;;;;10.68;8.45;;;;;;;15.40;69.75;101566.19;5068507;28;20025;-72
2021/06/10 00:55:05;;;;;;;14.07;8.70;;;;;;;15.40;70.02;101570.88;5069794;28;20056;-72
2021/06/10 00:57:30;;;;;;;11.52;8.63;;;;;;;15.38;70.42;101568.41;5069129;28;20051;-71
2021/06/10 00:59:55;;;;;;;12.65;9.38;;;;;;;15.35;70.48;101579.97;5070546;28;20074;-72
2021/06/10 01:02:21;;;;;;;12.00;8.73;;;;;;;15.32;70.71;101569.56;5072361;28;20028;-71
2021/06/10 01:04:46;;;;;;;13.45;8.45;;;;;;;15.29;71.03;101581.94;5073528;28;20032;-72
2021/06/10 01:07:36;;;;;;;13.23;9.50;;;;;;;15.27;71.42;101569.59;5073945;28;20044;-72
2021/06/10 01:10:05;;;;;;;12.15;9.27;;;;;;;15.23;71.61;101574.03;5056204;28;20067;-72
2021/06/10 01:12:42;;;;;;;12.82;9.60;;;;;;;15.21;71.88;101579.00;5072456;28;20032;-72
2021/06/10 01:15:12;;;;;;;15.70;9.95;;;;;;;15.18;71.91;101574.06;5065822;28;20033;-72
2021/06/10 01:17:46;;;;;;;18.15;10.40;;;;;;;15.16;71.84;101565.28;5057702;28;20479;-71
2021/06/10 01:20:13;;;;;;;17.38;10.10;;;;;;;15.16;72.17;101577.09;5047234;28;20059;-72
2021/06/10 01:22:43;;;;;;;13.48;10.20;;;;;;;15.15;72.37;101575.47;5072580;28;20027;-72
2021/06/10 01:25:32;;;;;;;14.88;9.95;;;;;;;15.13;72.58;101563.94;5054128;28;20040;-72
2021/06/10 01:28:02;;;;;;;14.63;10.77;;;;;;;15.12;72.55;101569.72;5073006;28;20024;-72
2021/06/10 01:30:33;;;;;;;14.20;11.68;;;;;;;15.10;72.93;101579.06;5066062;28;20029;-72
2021/06/10 01:33:01;;;;;;;15.03;10.67;;;;;;;15.08;73.15;101564.78;5071332;28;20095;-72
2021/06/10 01:35:27;;;;;;;20.35;11.82;;;;;;;15.05;73.11;101554.38;5072357;28;20057;-71
2021/06/10 01:37:54;;;;;;;15.85;13.27;;;;;;;15.03;73.64;101556.59;5054185;28;20588;-72
2021/06/10 01:40:20;;;;;;;18.08;12.02;;;;;;;15.02;73.78;101556.88;5044440;28;20052;-72
2021/06/10 01:42:46;;;;;;;17.15;13.13;;;;;;;15.00;73.83;101551.66;5072190;28;20123;-72
2021/06/10 01:45:12;;;;;;;17.88;12.85;;;;;;;14.99;74.10;101555.50;5070648;28;20063;-72
2021/06/10 01:47:40;;;;;;;19.63;14.43;;;;;;;15.01;74.40;101555.25;5060249;28;20024;-71
2021/06/10 01:50:07;;;;;;;16.90;13.02;;;;;;;14.99;74.63;101550.03;5054613;28;20020;-73
2021/06/10 01:52:32;;;;;;;18.75;12.20;;;;;;;14.99;74.92;101555.50;5071707;28;20057;-73
2021/06/10 01:54:58;;;;;;;16.98;12.95;;;;;;;14.97;75.11;101552.22;5071232;28;20024;-73
2021/06/10 01:57:24;;;;;;;23.17;13.65;;;;;;;14.98;75.26;101550.31;5070732;28;20386;-74
2021/06/10 01:59:49;;;;;;;19.10;13.32;;;;;;;14.99;75.66;101566.50;5072533;28;20066;-72
2021/06/10 02:02:14;;;;;;;20.83;13.77;;;;;;;14.98;75.63;101564.88;5071542;28;20047;-72
2021/06/10 02:04:40;;;;;;;19.15;13.50;;;;;;;14.96;75.68;101566.25;5070675;28;20040;-72
2021/06/10 02:07:05;;;;;;;24.38;14.70;;;;;;;14.96;76.14;101550.59;5075552;28;20024;-72
2021/06/10 02:09:31;;;;;;;19.30;13.50;;;;;;;14.96;75.89;101560.75;5070225;28;20128;-72
2021/06/10 02:11:56;;;;;;;21.08;14.02;;;;;;;14.96;76.05;101560.75;5071172;28;20501;-72
2021/06/10 02:14:22;;;;;;;19.35;14.20;;;;;;;14.94;76.21;101552.78;5078998;28;20029;-73
2021/06/10 02:16:47;;;;;;;20.75;13.43;;;;;;;14.96;76.40;101544.28;5070818;28;20035;-72
2021/06/10 02:19:14;;;;;;;21.13;13.98;;;;;;;14.94;76.49;101547.31;5071458;28;20028;-71
2021/06/10 02:21:40;;;;;;;19.25;14.18;;;;;;;14.93;76.70;101551.16;5080383;28;20401;-72
2021/06/10 02:24:05;;;;;;;19.60;14.73;;;;;;;14.94;76.76;101544.56;5071242;28;20024;-72
2021/06/10 02:26:31;;;;;;;21.63;14.80;;;;;;;14.94;76.92;101552.78;5071410;28;20028;-72
2021/06/10 02:28:56;;;;;;;23.10;15.30;;;;;;;14.95;77.23;101545.38;5070177;28;20035;-72
2021/06/10 02:31:22;;;;;;;22.83;15.85;;;;;;;14.95;77.22;101543.47;5072673;28;20177;-72
2021/06/10 02:33:48;;;;;;;21.38;15.35;;;;;;;14.95;77.31;101546.22;5071962;28;20031;-72
2021/06/10 02:36:15;;;;;;;21.13;16.08;;;;;;;14.95;77.38;101548.97;5071017;28;20127;-72
2021/06/10 02:38:43;;;;;;;23.38;15.30;;;;;;;14.97;77.71;101545.91;5071125;28;20024;-71
2021/06/10 02:41:09;;;;;;;26.77;16.50;;;;;;;14.96;77.89;101547.84;5071102;28;20032;-71
2021/06/10 02:43:34;;;;;;;28.42;17.73;;;;;;;14.97;77.89;101551.41;5070853;28;20402;-74
2021/06/10 02:46:00;;;;;;;29.45;18.63;;;;;;;14.99;78.29;101544.53;5053875;28;20469;-71
2021/06/10 02:48:28;;;;;;;26.02;17.67;;;;;;;14.98;78.50;101537.41;5070728;28;20047;-71
2021/06/10 02:50:53;;;;;;;27.50;17.45;;;;;;;14.99;78.82;101539.03;5053608;28;20382;-73
2021/06/10 02:53:19;;;;;;;23.67;17.48;;;;;;;14.97;78.85;101524.75;5071022;28;20099;-72
2021/06/10 02:55:45;;;;;;;27.25;17.30;;;;;;;14.97;78.90;101527.50;5053908;28;20039;-72
2021/06/10 02:58:12;;;;;;;22.70;16.67;;;;;;;14.97;79.00;101530.25;5069756;28;20025;-72
2021/06/10 03:00:38;;;;;;;23.95;17.08;;;;;;;14.96;79.18;101523.13;5047291;28;20020;-72
2021/06/10 03:03:03;;;;;;;25.67;16.42;;;;;;;14.96;79.34;101534.13;5069809;28;20406;-72
2021/06/10 03:05:29;;;;;;;27.80;16.42;;;;;;;14.96;79.63;101525.06;5071263;28;20047;-72
2021/06/10 03:07:55;;;;;;;26.88;17.38;;;;;;;14.95;79.49;101529.75;5056576;28;20066;-73
2021/06/10 03:10:26;;;;;;;27.15;17.40;;;;;;;14.93;80.02;101523.72;5074422;28;20093;-73
2021/06/10 03:12:52;;;;;;;25.85;17.02;;;;;;;14.95;80.08;101523.41;5070252;28;20049;-73
2021/06/10 03:15:17;;;;;;;24.90;16.42;;;;;;;14.95;80.08;101526.16;5053554;28;20044;-72
2021/06/10 03:17:43;;;;;;;24.52;18.00;;;;;;;14.95;80.39;101534.38;5070532;28;20032;-73
2021/06/10 03:20:08;;;;;;;28.85;18.63;;;;;;;14.95;80.08;101526.16;5054163;28;20020;-73
2021/06/10 03:22:34;;;;;;;32.55;18.38;;;;;;;14.99;80.25;101530.78;5035883;28;20432;-73
2021/06/10 03:25:04;;;;;;;23.23;17.15;;;;;;;14.99;80.09;101521.75;5052700;28;20032;-73
2021/06/10 03:27:30;;;;;;;29.60;18.67;;;;;;;14.99;79.94;101519.00;5071884;28;20044;-72
2021/06/10 03:29:56;;;;;;;28.45;17.75;;;;;;;15.01;80.37;101525.84;5054385;28;20027;-72
2021/06/10 03:32:21;;;;;;;26.10;18.45;;;;;;;15.04;80.19;101522.53;5071773;28;20501;-72
2021/06/10 03:34:47;;;;;;;28.52;18.90;;;;;;;15.06;80.30;101527.75;5069352;28;20109;-72
2021/06/10 03:37:12;;;;;;;26.20;18.27;;;;;;;15.06;79.91;101520.31;5070697;28;20033;-73
2021/06/10 03:39:37;;;;;;;26.20;18.48;;;;;;;15.09;80.14;101527.16;5069255;28;20393;-73
2021/06/10 03:42:03;;;;;;;29.38;18.48;;;;;;;15.12;80.01;101521.09;5053663;28;20081;-72
2021/06/10 03:44:31;;;;;;;28.38;19.95;;;;;;;15.14;80.10;101521.66;5070118;28;20108;-72
2021/06/10 03:46:56;;;;;;;25.05;18.75;;;;;;;15.16;79.97;101522.16;5051601;28;20481;-73
2021/06/10 03:49:22;;;;;;;27.13;18.15;;;;;;;15.20;79.99;101527.91;5070451;28;20032;-73
2021/06/10 03:51:51;;;;;;;26.10;20.13;;;;;;;15.18;79.99;101519.94;5071249;28;20121;-72
2021/06/10 03:54:16;;;;;;;26.92;19.58;;;;;;;15.18;80.01;101508.97;5064823;28;20385;-73
2021/06/10 03:56:42;;;;;;;26.60;20.35;;;;;;;15.19;79.94;101516.09;5072152;28;20037;-73
2021/06/10 03:59:07;;;;;;;30.67;21.92;;;;;;;15.20;79.97;101511.44;5060470;28;20036;-73
2021/06/10 04:01:32;;;;;;;26.77;20.80;;;;;;;15.23;80.05;101516.34;5069842;28;20032;-74
2021/06/10 04:03:58;;;;;;;30.05;21.05;;;;;;;15.22;79.70;101514.69;5064461;28;20032;-74
2021/06/10 04:06:33;;;;;;;32.92;21.80;;;;;;;15.21;79.72;101519.38;5071088;28;20021;-73
2021/06/10 04:09:02;;;;;;;26.75;20.23;;;;;;;15.22;79.78;101517.44;5064447;28;20031;-72
2021/06/10 04:11:28;;;;;;;30.27;21.05;;;;;;;15.24;79.58;101512.50;5065694;28;20099;-72
2021/06/10 04:13:53;;;;;;;32.10;21.55;;;;;;;15.30;79.63;101511.31;5066910;28;20438;-73
2021/06/10 04:16:19;;;;;;;28.17;19.63;;;;;;;15.34;79.34;101520.66;5070861;28;20029;-72
2021/06/10 04:18:44;;;;;;;26.52;18.98;;;;;;;15.38;79.17;101516.19;5071278;28;20492;-73
2021/06/10 04:21:10;;;;;;;26.80;19.63;;;;;;;15.43;78.92;101526.34;5069663;28;20032;-73
2021/06/10 04:23:35;;;;;;;28.73;20.15;;;;;;;15.45;78.75;101511.22;5070974;28;20139;-73
2021/06/10 04:26:01;;;;;;;27.23;19.55;;;;;;;15.51;78.24;101515.53;5071112;28;20074;-73
2021/06/10 04:28:26;;;;;;;26.20;19.25;;;;;;;15.59;78.24;101518.78;5070284;28;21392;-74
2021/06/10 04:30:52;;;;;;;21.52;17.70;;;;;;;15.67;78.12;101520.91;5070011;28;20078;-73
2021/06/10 04:33:17;;;;;;;23.73;18.50;;;;;;;15.71;77.53;101528.31;5070476;28;20086;-73
2021/06/10 04:35:43;;;;;;;28.25;18.52;;;;;;;15.75;77.42;101521.09;5074227;28;20032;-73
2021/06/10 04:38:08;;;;;;;23.38;17.60;;;;;;;15.82;77.00;101519.94;5069311;28;20037;-72
2021/06/10 04:40:33;;;;;;;28.38;19.63;;;;;;;15.89;76.71;101518.47;5073842;28;20028;-72
2021/06/10 04:42:59;;;;;;;24.27;19.13;;;;;;;15.93;76.49;101530.56;5069431;28;20028;-72
2021/06/10 04:45:24;;;;;;;24.52;18.90;;;;;;;16.00;76.29;101537.63;5076385;28;20441;-72
2021/06/10 04:47:50;;;;;;;21.98;17.92;;;;;;;16.06;76.06;101540.03;5074539;28;20032;-72
2021/06/10 04:50:15;;;;;;;26.58;19.85;;;;;;;16.11;75.71;101539.97;5074635;28;20021;-72
2021/06/10 04:52:40;;;;;;;28.08;20.05;;;;;;;16.17;75.42;101540.72;5073617;28;20381;-72
2021/06/10 04:55:06;;;;;;;25.17;19.05;;;;;;;16.24;75.27;101538.44;5074235;28;20039;-73
2021/06/10 04:57:33;;;;;;;22.20;18.52;;;;;;;16.30;75.16;101540.03;5072551;28;20021;-72
2021/06/10 04:59:59;;;;;;;25.38;20.30;;;;;;;16.36;74.91;101543.53;5074440;28;20028;-72
2021/06/10 05:02:24;;;;;;;30.50;20.52;;;;;;;16.40;74.61;101550.91;5072159;28;20020;-72
2021/06/10 05:04:50;;;;;;;26.33;21.20;;;;;;;16.45;74.60;101546.44;5072184;28;20037;-72
2021/06/10 05:07:15;;;;;;;24.90;20.20;;;;;;;16.53;74.19;101554.03;5077555;28;20358;-72
2021/06/10 05:09:40;;;;;;;30.83;20.83;;;;;;;16.56;73.87;101547.94;5073803;28;20501;-72
2021/06/10 05:12:06;;;;;;;29.05;22.08;;;;;;;16.55;73.75;101547.13;5071263;28;20028;-72
2021/06/10 05:14:32;;;;;;;31.20;21.95;;;;;;;16.59;73.66;101544.63;5073787;28;20082;-72
2021/06/10 05:16:57;;;;;;;35.22;22.75;;;;;;;16.60;73.71;101549.00;5072118;28;20033;-73
2021/06/10 05:19:23;;;;;;;27.58;22.48;;;;;;;16.65;73.60;101558.00;5072423;28;20122;-72
2021/06/10 05:21:48;;;;;;;29.45;21.52;;;;;;;16.65;73.35;101555.25;5072718;28;20020;-72
2021/06/10 05:24:15;;;;;;;30.45;23.33;;;;;;;16.76;73.31;101553.19;5071275;28;20033;-73
2021/06/10 05:26:41;;;;;;;35.05;24.35;;;;;;;16.90;73.06;101546.97;5070371;28;20671;-73
2021/06/10 05:29:07;;;;;;;34.28;24.48;;;;;;;17.00;72.67;101552.34;5070339;28;20033;-72
2021/06/10 05:31:32;;;;;;;32.03;23.90;;;;;;;17.09;72.38;101556.84;5070101;28;20032;-72
2021/06/10 05:33:58;;;;;;;34.30;24.25;;;;;;;17.18;72.30;101547.91;5056503;28;20035;-72
2021/06/10 05:36:23;;;;;;;29.95;23.27;;;;;;;17.24;71.96;101544.78;5072015;28;20080;-73
2021/06/10 05:38:48;;;;;;;32.63;23.23;;;;;;;17.27;71.81;101552.47;5072390;28;20446;-73
2021/06/10 05:41:14;;;;;;;30.85;23.30;;;;;;;17.36;71.66;101549.00;5071270;28;20094;-72
2021/06/10 05:43:39;;;;;;;27.38;22.92;;;;;;;17.40;71.37;101552.78;5072292;28;20031;-72
2021/06/10 05:46:06;;;;;;;30.38;23.50;;;;;;;17.47;71.31;101556.00;5069843;28;20020;-72
2021/06/10 05:48:32;;;;;;;31.88;23.70;;;;;;;17.46;70.97;101557.09;5064035;28;20028;-71
2021/06/10 05:50:57;;;;;;;32.25;23.42;;;;;;;17.41;71.13;101557.22;5070212;28;20070;-73
2021/06/10 05:53:24;;;;;;;36.78;24.95;;;;;;;17.43;71.23;101560.47;5070887;28;20313;-72
2021/06/10 05:55:49;;;;;;;32.22;24.60;;;;;;;17.38;70.97;101568.81;5070100;28;20103;-73
2021/06/10 05:58:15;;;;;;;34.15;24.90;;;;;;;17.31;71.07;101558.19;5064635;28;20114;-72
2021/06/10 06:00:40;;;;;;;32.08;23.55;;;;;;;17.36;71.18;101560.84;5068210;28;20029;-72
2021/06/10 06:03:07;;;;;;;34.53;25.10;;;;;;;17.40;71.07;101561.06;5066028;28;20040;-72
2021/06/10 06:05:32;;;;;;;34.80;25.67;;;;;;;17.38;71.05;101555.88;5065978;28;20502;-72
2021/06/10 06:07:59;;;;;;;32.17;24.55;;;;;;;17.34;71.08;101556.75;5071105;28;20142;-72
2021/06/10 06:10:25;;;;;;;33.67;25.15;;;;;;;17.30;70.96;101557.38;5062974;28;20031;-72
2021/06/10 06:12:55;;;;;;;31.77;23.77;;;;;;;17.26;70.85;101559.06;5066831;28;20029;-72
2021/06/10 06:15:20;;;;;;;36.58;26.38;;;;;;;17.20;70.76;101568.53;5066236;28;20028;-72
2021/06/10 06:17:47;;;;;;;37.53;26.58;;;;;;;17.19;70.86;101555.09;5063500;28;20021;-72
2021/06/10 06:20:12;;;;;;;33.97;26.83;;;;;;;17.21;70.83;101559.16;5079023;28;20339;-72
2021/06/10 06:22:41;;;;;;;35.25;25.77;;;;;;;17.29;70.75;101561.22;5065677;28;20104;-73
2021/06/10 06:25:10;;;;;;;32.03;23.90;;;;;;;17.35;70.46;101553.72;5060992;28;20076;-72
2021/06/10 06:27:36;;;;;;;30.10;24.98;;;;;;;17.51;70.22;101559.75;5070799;28;20032;-71
2021/06/10 06:30:03;;;;;;;32.80;25.05;;;;;;;17.68;69.95;101550.94;5068159;28;20021;-74
2021/06/10 06:32:28;;;;;;;29.58;23.98;;;;;;;17.79;69.72;101554.34;5053325;28;20398;-72
2021/06/10 06:34:54;;;;;;;32.67;23.20;;;;;;;17.90;69.66;101555.81;5069169;28;20053;-73
2021/06/10 06:37:19;;;;;;;35.22;26.00;;;;;;;17.98;69.52;101555.13;5073408;28;20029;-72
2021/06/10 06:39:45;;;;;;;34.75;24.90;;;;;;;17.89;69.39;101556.94;5073140;28;20051;-72
2021/06/10 06:42:10;;;;;;;36.90;24.98;;;;;;;17.85;69.42;101567.75;5072435;28;20466;-73
2021/06/10 06:44:37;;;;;;;35.25;25.40;;;;;;;17.86;69.21;101558.34;5077403;28;20193;-73
2021/06/10 06:47:02;;;;;;;30.48;24.27;;;;;;;18.03;69.03;101562.47;5080487;28;20040;-73
2021/06/10 06:49:28;;;;;;;32.92;24.27;;;;;;;18.17;68.61;101560.53;5073195;28;20024;-72
2021/06/10 06:51:53;;;;;;;37.42;26.92;;;;;;;18.18;68.62;101564.94;5073700;28;20385;-73
2021/06/10 06:54:19;;;;;;;37.58;25.77;;;;;;;18.13;68.74;101557.56;5073054;28;20024;-73
2021/06/10 06:56:44;;;;;;;35.60;26.60;;;;;;;18.22;68.66;101562.38;5075443;28;20389;-73
2021/06/10 06:59:09;;;;;;;33.28;24.33;;;;;;;18.29;68.54;101562.78;5071032;28;20040;-73
2021/06/10 07:01:36;;;;;;;31.55;24.25;;;;;;;18.28;68.36;101569.41;5071951;28;20050;-73
2021/06/10 07:04:01;;;;;;;33.92;25.52;;;;;;;18.28;68.15;101581.28;5065154;28;20039;-72
2021/06/10 07:06:27;;;;;;;36.85;26.17;;;;;;;18.25;68.19;101586.59;5066573;28;20020;-73
2021/06/10 07:08:52;;;;;;;34.22;24.77;;;;;;;18.19;68.33;101580.34;5070132;28;20036;-72
2021/06/10 07:11:18;;;;;;;32.10;25.17;;;;;;;18.15;68.34;101576.59;5072077;28;20028;-73
2021/06/10 07:13:43;;;;;;;30.75;24.17;;;;;;;18.10;68.64;101583.00;5064359;28;20024;-72
2021/06/10 07:16:08;;;;;;;36.55;27.63;;;;;;;18.06;68.79;101590.28;5070936;28;20020;-72
2021/06/10 07:18:34;;;;;;;36.63;26.08;;;;;;;18.06;68.81;101595.81;5067663;28;20398;-72
2021/06/10 07:20:59;;;;;;;35.72;26.13;;;;;;;17.99;68.95;101589.84;5071708;28;20020;-72
2021/06/10 07:23:25;;;;;;;38.85;26.88;;;;;;;17.97;68.89;101601.19;5054413;28;20032;-73
2021/06/10 07:25:50;;;;;;;35.13;26.85;;;;;;;18.03;69.07;101598.31;5065198;28;20024;-72
2021/06/10 07:28:16;;;;;;;34.30;25.42;;;;;;;18.11;68.83;101594.84;5066395;28;20021;-73
2021/06/10 07:30:41;;;;;;;33.40;25.05;;;;;;;18.24;69.10;101590.50;5070305;28;20462;-73
2021/06/10 07:33:07;;;;;;;35.83;28.17;;;;;;;18.26;68.92;101593.78;5071217;28;20032;-73
2021/06/10 07:35:33;;;;;;;34.90;26.83;;;;;;;18.27;68.85;101603.66;5071429;28;20052;-73
2021/06/10 07:37:59;;;;;;;42.05;28.45;;;;;;;18.25;68.80;101605.91;5068012;28;20029;-73
2021/06/10 07:40:24;;;;;;;36.85;26.52;;;;;;;18.22;68.96;101604.59;5068815;28;20039;-73
2021/06/10 07:42:49;;;;;;;36.78;26.67;;;;;;;18.18;69.03;101609.09;5067254;28;20028;-73
2021/06/10 07:45:15;;;;;;;39.30;28.02;;;;;;;18.23;69.13;101605.41;5063155;28;20491;-73
2021/06/10 07:47:41;;;;;;;35.97;27.33;;;;;;;18.27;68.78;101610.00;5052384;28;20025;-73
2021/06/10 07:50:07;;;;;;;34.33;26.23;;;;;;;18.25;68.94;101597.63;5064982;28;20033;-73
2021/06/10 07:52:33;;;;;;;36.70;26.17;;;;;;;18.29;69.24;101601.44;5065195;28;20508;-73
2021/06/10 07:54:58;;;;;;;36.13;27.80;;;;;;;18.24;68.94;101601.53;5061122;28;20029;-73
2021/06/10 07:57:23;;;;;;;33.70;25.27;;;;;;;18.25;69.20;101592.13;5063951;28;20037;-73
2021/06/10 07:59:49;;;;;;;33.20;26.02;;;;;;;18.29;69.00;101595.91;5069572;28;20378;-73
2021/06/10 08:02:14;;;;;;;32.97;26.17;;;;;;;18.29;69.13;101593.97;5071267;28;20492;-72
2021/06/10 08:04:40;;;;;;;32.65;25.58;;;;;;;18.39;69.37;101606.75;5064688;28;20449;-72
2021/06/10 08:07:05;;;;;;;33.78;24.70;;;;;;;18.44;69.34;101601.09;5071125;28;20032;-72
2021/06/10 08:09:32;;;;;;;37.83;25.85;;;;;;;18.52;69.08;101613.38;5050748;28;20025;-73
2021/06/10 08:11:58;;;;;;;32.63;24.73;;;;;;;18.63;68.91;101607.38;5070307;28;20474;-72
2021/06/10 08:14:23;;;;;;;35.63;24.42;;;;;;;18.83;68.61;101605.31;5070452;28;20032;-73
2021/06/10 08:16:49;;;;;;;31.05;26.45;;;;;;;18.88;68.18;101616.25;5052264;28;20025;-73
2021/06/10 08:19:14;;;;;;;31.88;25.17;;;;;;;18.88;68.60;101607.13;5074079;28;20417;-71
2021/06/10 08:21:39;;;;;;;34.50;26.33;;;;;;;18.82;67.94;101611.94;5059041;28;20031;-72
2021/06/10 08:24:05;;;;;;;33.00;25.08;;;;;;;18.67;68.43;101610.31;5055896;28;20055;-72
2021/06/10 08:26:31;;;;;;;35.17;27.02;;;;;;;18.71;68.82;101616.84;5075403;28;20533;-74
2021/06/10 08:28:56;;;;;;;31.60;23.90;;;;;;;18.69;68.75;101618.28;5067725;28;20032;-73
2021/06/10 08:31:21;;;;;;;31.33;23.60;;;;;;;18.67;68.84;101615.03;5071140;28;20098;-73
2021/06/10 08:33:47;;;;;;;36.33;25.27;;;;;;;18.63;68.80;101612.03;5073468;28;20430;-73
2021/06/10 08:36:13;;;;;;;33.22;25.55;;;;;;;18.67;69.42;101618.59;5074314;28;20051;-74
2021/06/10 08:38:38;;;;;;;30.70;24.02;;;;;;;18.77;68.90;101634.16;5076045;28;20462;-73
2021/06/10 08:41:04;;;;;;;32.72;24.38;;;;;;;18.84;69.00;101626.28;5069726;28;20092;-74
2021/06/10 08:43:29;;;;;;;33.53;24.60;;;;;;;18.84;68.70;101632.63;5069304;28;20132;-73
2021/06/10 08:46:05;;;;;;;37.97;24.48;;;;;;;18.78;68.62;101627.53;5068588;28;20070;-73
2021/06/10 08:48:32;;;;;;;31.40;23.60;;;;;;;18.77;69.12;101629.47;5061021;28;20035;-73
2021/06/10 08:50:58;;;;;;;33.08;24.20;;;;;;;18.89;69.08;101641.94;5065015;28;20028;-74
2021/06/10 08:53:23;;;;;;;32.90;25.33;;;;;;;19.08;68.89;101624.09;5065989;28;20038;-74
2021/06/10 08:55:49;;;;;;;31.80;24.52;;;;;;;19.26;68.18;101638.06;5058654;28;20021;-73
2021/06/10 08:58:15;;;;;;;29.88;23.27;;;;;;;19.28;67.94;101630.28;5073633;28;20048;-73
2021/06/10 09:00:40;;;;;;;32.70;22.65;;;;;;;19.38;68.04;101626.47;5074535;28;20062;-74
2021/06/10 09:03:07;;;;;;;30.20;23.67;;;;;;;19.63;67.60;101636.09;5072875;28;20119;-73
2021/06/10 09:05:32;;;;;;;31.45;24.20;;;;;;;19.69;67.00;101630.13;5071744;28;20031;-74
2021/06/10 09:08:02;;;;;;;33.40;22.98;;;;;;;19.76;66.66;101638.00;5069579;28;20103;-73
2021/06/10 09:10:29;;;;;;;29.67;22.98;;;;;;;19.96;66.38;101633.88;5071076;28;20028;-74
2021/06/10 09:13:04;;;;;;;27.08;22.58;;;;;;;20.36;65.70;101637.50;5071916;28;20016;-74
2021/06/10 09:15:31;;;;;;;26.25;20.40;;;;;;;20.54;65.30;101637.59;5069607;28;20090;-72
2021/06/10 09:18:00;;;;;;;23.90;20.40;;;;;;;20.63;64.97;101635.69;5070123;28;20104;-72
2021/06/10 09:20:27;;;;;;;24.48;20.67;;;;;;;20.68;64.27;101641.09;5071496;28;20380;-73
2021/06/10 09:23:24;;;;;;;23.60;19.55;;;;;;;20.64;64.41;101642.03;5069437;28;20207;-73
2021/06/10 09:26:03;;;;;;;28.45;21.83;;;;;;;20.50;64.44;101636.59;5072091;28;20545;-73
2021/06/10 09:28:33;;;;;;;26.33;21.70;;;;;;;20.31;64.81;101650.69;5072195;28;20059;-73
2021/06/10 09:30:59;;;;;;;32.58;23.35;;;;;;;20.11;65.10;101639.03;5071560;28;20036;-72
2021/06/10 09:33:25;;;;;;;26.60;22.42;;;;;;;19.94;65.28;101636.97;5069545;28;20025;-75
2021/06/10 09:35:52;;;;;;;28.85;22.75;;;;;;;19.73;65.34;101638.63;5073113;28;20405;-72
2021/06/10 09:38:21;;;;;;;27.42;22.58;;;;;;;19.69;66.00;101637.63;5069014;28;20124;-72
2021/06/10 09:40:51;;;;;;;27.48;20.80;;;;;;;19.71;65.77;101638.13;5054730;28;20395;-72
2021/06/10 09:43:17;;;;;;;30.65;22.02;;;;;;;19.73;66.05;101635.88;5055679;28;20386;-72
2021/06/10 09:45:43;;;;;;;28.00;21.77;;;;;;;19.78;66.43;101638.50;5072062;28;20028;-72
2021/06/10 09:48:09;;;;;;;26.98;22.40;;;;;;;19.95;65.90;101641.38;5065638;28;20039;-73
2021/06/10 09:50:47;;;;;;;37.08;22.23;;;;;;;20.09;66.04;101643.25;5075088;28;20020;-72
2021/06/10 09:53:16;;;;;;;29.02;23.50;;;;;;;20.08;65.79;101647.13;5059510;28;20385;-72
2021/06/10 09:55:55;;;;;;;28.73;23.73;;;;;;;20.12;65.82;101648.13;5073929;28;20046;-72
2021/06/10 09:58:32;;;;;;;27.55;20.75;;;;;;;20.13;66.08;101647.00;5074971;28;20032;-73
2021/06/10 10:01:01;;;;;;;29.20;22.42;;;;;;;20.29;65.48;101653.75;5072918;28;20033;-73
2021/06/10 10:03:29;;;;;;;25.60;21.48;;;;;;;20.43;65.42;101655.59;5069258;28;20043;-73
2021/06/10 10:05:58;;;;;;;25.85;19.95;;;;;;;20.60;65.24;101653.75;5078687;28;20020;-73
2021/06/10 10:08:23;;;;;;;24.85;20.25;;;;;;;20.78;64.89;101662.94;5068823;28;20056;-74
2021/06/10 10:10:49;;;;;;;25.02;21.67;;;;;;;20.79;64.30;101661.81;5070252;28;20413;-73
2021/06/10 10:13:16;;;;;;;23.77;19.85;;;;;;;20.79;64.37;101661.00;5070795;28;20035;-72
2021/06/10 10:15:42;;;;;;;24.45;20.40;;;;;;;20.88;64.33;101663.78;5070227;28;20100;-72
2021/06/10 10:18:07;;;;;;;23.73;21.17;;;;;;;20.96;63.75;101661.03;5072193;28;20052;-73
2021/06/10 10:20:33;;;;;;;22.85;20.35;;;;;;;21.04;63.55;101662.19;5049590;28;20086;-73
2021/06/10 10:22:58;;;;;;;25.50;21.25;;;;;;;21.03;63.36;101666.09;5071970;28;20024;-72
2021/06/10 10:25:24;;;;;;;23.33;18.85;;;;;;;21.04;63.23;101668.56;5069237;28;20497;-73
2021/06/10 10:27:49;;;;;;;25.52;22.52;;;;;;;20.97;63.04;101662.66;5062134;28;20040;-72
2021/06/10 10:30:16;;;;;;;25.92;21.13;;;;;;;20.97;63.23;101667.38;5051751;28;20027;-71
2021/06/10 10:32:44;;;;;;;24.75;20.55;;;;;;;21.06;62.95;101669.06;5069178;28;20112;-72
2021/06/10 10:35:21;;;;;;;23.67;20.48;;;;;;;21.07;63.10;101664.31;5070899;28;20028;-72
2021/06/10 10:37:47;;;;;;;26.75;21.42;;;;;;;20.95;63.30;101667.72;5070330;28;20488;-72
2021/06/10 10:40:31;;;;;;;28.85;23.30;;;;;;;20.80;63.51;101671.75;5070691;28;20032;-72
2021/06/10 10:43:12;;;;;;;29.02;21.75;;;;;;;20.65;63.54;101669.41;5067212;28;20112;-72
2021/06/10 10:45:37;;;;;;;29.13;22.35;;;;;;;20.47;64.17;101670.47;5065488;28;20021;-72
2021/06/10 10:48:08;;;;;;;25.67;21.63;;;;;;;20.40;64.29;101668.94;5069909;28;20020;-72
2021/06/10 10:50:44;;;;;;;26.40;22.40;;;;;;;20.38;64.46;101668.47;5070581;28;20120;-72
2021/06/10 10:53:45;;;;;;;28.65;22.60;;;;;;;20.23;64.64;101663.34;5082782;28;20020;-72
2021/06/10 10:56:07;;;;;;;25.50;20.80;;;;;;;20.12;64.99;101668.34;5068721;28;20500;-72
2021/06/10 10:58:32;;;;;;;23.40;19.83;;;;;;;20.06;65.07;101660.50;5080503;28;20473;-71
2021/06/10 11:00:59;;;;;;;23.55;20.63;;;;;;;20.22;65.36;101664.50;5052837;28;20202;-72
2021/06/10 11:03:26;;;;;;;24.20;19.08;;;;;;;20.33;65.18;101663.06;5073242;28;20032;-72
2021/06/10 11:05:52;;;;;;;23.67;20.75;;;;;;;20.47;64.64;101660.19;5054509;28;20081;-72
2021/06/10 11:08:17;;;;;;;23.27;19.20;;;;;;;20.47;64.66;101656.63;5071392;28;20088;-71